Time;durP1;ratioP1;P1;durP2;ratioP2;P2;SDS_P1;SDS_P2;PMS_P1;PMS_P2;Temp;Humidity;BMP_temperature;BMP_pressure;BME280_temperature;BME280_humidity;BME280_pressure;Samples;Min_cycle;Max_cycle;Signal;HPM_P1;HPM_P2
2021/10/18 00:02:21;;;;;;;2.22;1.70;;;17.70;73.50;;;;;;4942357;28;96017;-65
2021/10/18 00:04:53;;;;;;;3.28;1.20;;;17.60;73.40;;;;;;4951913;28;97132;-66
2021/10/18 00:07:26;;;;;;;1.30;1.20;;;17.70;73.40;;;;;;4950714;28;97357;-65
2021/10/18 00:09:56;;;;;;;1.30;1.20;;;17.60;73.30;;;;;;4966478;28;97691;-66
2021/10/18 00:12:26;;;;;;;3.22;1.42;;;17.60;73.20;;;;;;4969391;28;95535;-65
2021/10/18 00:14:56;;;;;;;2.53;1.43;;;17.70;73.20;;;;;;4968994;28;95907;-65
2021/10/18 00:17:26;;;;;;;1.60;1.27;;;17.70;73.20;;;;;;4966450;28;95426;-69
2021/10/18 00:19:56;;;;;;;1.55;1.40;;;17.70;73.10;;;;;;4949174;28;95469;-65
2021/10/18 00:22:29;;;;;;;2.70;1.50;;;17.70;73.10;;;;;;4936416;28;95496;-65
2021/10/18 00:24:59;;;;;;;1.73;1.20;;;17.70;73.10;;;;;;4971346;28;96676;-65
2021/10/18 00:27:31;;;;;;;;;;;17.70;73.00;;;;;;4968988;28;95789;-65
2021/10/18 00:30:04;;;;;;;1.80;1.17;;;17.70;73.00;;;;;;4973956;28;96178;-65
2021/10/18 00:32:37;;;;;;;2.13;1.75;;;17.70;72.90;;;;;;4930299;28;95994;-65
2021/10/18 00:35:08;;;;;;;1.63;0.93;;;17.70;73.00;;;;;;4965766;28;100692;-65
2021/10/18 00:37:39;;;;;;;2.13;1.30;;;17.70;72.90;;;;;;4934430;28;96805;-65
2021/10/18 00:40:10;;;;;;;;;;;17.70;72.90;;;;;;4965789;28;95506;-65
2021/10/18 00:42:41;;;;;;;1.40;1.30;;;17.80;72.90;;;;;;4956045;28;95726;-66
2021/10/18 00:45:12;;;;;;;1.50;1.15;;;17.80;72.90;;;;;;4966029;28;96438;-65
2021/10/18 00:47:42;;;;;;;1.33;0.85;;;17.80;72.90;;;;;;4958691;28;101906;-65
2021/10/18 00:50:12;;;;;;;2.80;1.13;;;17.80;72.90;;;;;;4974102;28;95754;-67
2021/10/18 00:52:44;;;;;;;2.45;1.25;;;17.80;72.90;;;;;;4953597;28;96081;-68
2021/10/18 00:55:16;;;;;;;1.80;0.93;;;17.80;72.90;;;;;;4953207;28;98308;-65
2021/10/18 00:57:51;;;;;;;1.15;1.05;;;17.80;72.90;;;;;;4953884;28;96649;-66
2021/10/18 01:00:21;;;;;;;1.95;1.08;;;17.80;72.90;;;;;;4966061;28;97866;-65
2021/10/18 01:02:52;;;;;;;2.17;1.00;;;17.90;72.90;;;;;;4973920;28;95722;-65
2021/10/18 01:05:24;;;;;;;1.60;1.10;;;17.90;72.90;;;;;;4962858;28;97487;-65
2021/10/18 01:07:55;;;;;;;1.98;1.02;;;17.90;72.90;;;;;;4982663;28;98152;-64
2021/10/18 01:10:26;;;;;;;1.20;0.80;;;17.90;70.40;;;;;;4966476;28;95360;-65
2021/10/18 01:12:58;;;;;;;1.30;1.20;;;17.90;72.80;;;;;;4967993;28;96527;-65
2021/10/18 01:15:29;;;;;;;1.55;1.10;;;17.90;72.70;;;;;;4975427;28;95019;-66
2021/10/18 01:18:01;;;;;;;2.20;1.00;;;18.00;72.70;;;;;;4983711;28;95160;-65
2021/10/18 01:20:42;;;;;;;1.15;1.05;;;18.00;72.70;;;;;;4967998;28;95471;-66
2021/10/18 01:23:13;;;;;;;1.33;1.02;;;18.00;72.70;;;;;;4956087;28;95285;-66
2021/10/18 01:25:44;;;;;;;0.77;0.77;;;18.00;72.60;;;;;;4969656;28;96311;-69
2021/10/18 01:28:16;;;;;;;1.70;1.10;;;18.00;72.60;;;;;;4951719;28;95962;-66
2021/10/18 01:30:47;;;;;;;1.42;1.10;;;18.00;72.50;;;;;;4945726;28;95843;-66
2021/10/18 01:33:18;;;;;;;;;;;18.00;72.50;;;;;;4955469;28;95907;-66
2021/10/18 01:35:49;;;;;;;1.48;1.27;;;18.00;72.50;;;;;;4962693;28;95963;-68
2021/10/18 01:38:20;;;;;;;1.13;1.00;;;18.00;72.40;;;;;;4951372;28;97834;-66
2021/10/18 01:40:50;;;;;;;1.55;1.10;;;18.00;72.40;;;;;;4941289;28;96382;-65
2021/10/18 01:43:21;;;;;;;2.17;1.30;;;18.10;72.50;;;;;;4971145;28;95961;-65
2021/10/18 01:45:52;;;;;;;1.30;1.20;;;18.10;72.40;;;;;;4964581;28;98386;-65
2021/10/18 01:48:22;;;;;;;2.15;1.05;;;18.10;72.40;;;;;;4953846;28;95984;-69
2021/10/18 01:50:52;;;;;;;2.45;1.40;;;18.10;72.40;;;;;;4953830;28;96896;-65
2021/10/18 01:53:22;;;;;;;1.23;1.00;;;18.10;72.40;;;;;;4970729;28;96878;-65
2021/10/18 01:55:53;;;;;;;1.80;0.95;;;18.10;72.40;;;;;;4955922;28;97970;-66
2021/10/18 01:58:31;;;;;;;1.42;1.20;;;18.10;72.70;;;;;;4966154;28;98015;-70
2021/10/18 02:01:05;;;;;;;2.10;1.10;;;18.10;72.90;;;;;;4962338;28;97532;-65
2021/10/18 02:03:37;;;;;;;0.85;0.80;;;18.20;73.20;;;;;;4951874;28;95979;-67
2021/10/18 02:06:12;;;;;;;2.92;1.10;;;18.20;73.90;;;;;;4954372;28;96485;-65
2021/10/18 02:08:42;;;;;;;2.63;0.90;;;18.30;73.50;;;;;;4937519;28;96688;-65
2021/10/18 02:11:13;;;;;;;2.90;1.15;;;18.30;73.40;;;;;;4952076;28;96146;-65
2021/10/18 02:13:44;;;;;;;2.15;1.02;;;18.40;73.50;;;;;;4967634;28;95848;-65
2021/10/18 02:16:15;;;;;;;1.95;0.90;;;18.50;73.60;;;;;;4960618;28;95914;-65
2021/10/18 02:18:47;;;;;;;1.80;1.10;;;18.60;73.60;;;;;;4970772;28;96484;-65
2021/10/18 02:21:18;;;;;;;1.20;1.08;;;18.60;73.50;;;;;;4973833;28;95183;-66
2021/10/18 02:23:48;;;;;;;3.10;1.48;;;18.70;73.50;;;;;;4960616;28;95986;-66
2021/10/18 02:26:19;;;;;;;1.95;1.15;;;18.80;73.20;;;;;;4985011;28;96041;-65
2021/10/18 02:28:51;;;;;;;0.90;0.70;;;18.90;73.20;;;;;;4971192;28;96297;-67
2021/10/18 02:31:24;;;;;;;1.05;0.98;;;19.00;73.20;;;;;;4954232;28;97800;-66
2021/10/18 02:33:58;;;;;;;1.17;0.93;;;19.00;73.00;;;;;;4970297;28;96014;-65
2021/10/18 02:36:28;;;;;;;1.38;1.17;;;19.10;72.90;;;;;;4951134;28;98565;-70
2021/10/18 02:38:59;;;;;;;2.20;1.02;;;19.20;71.90;;;;;;4951463;28;96166;-66
2021/10/18 02:41:30;;;;;;;1.23;0.90;;;19.10;72.00;;;;;;4954610;28;95729;-67
2021/10/18 02:44:00;;;;;;;2.20;1.07;;;19.20;72.30;;;;;;4970905;28;95708;-67
2021/10/18 02:46:30;;;;;;;1.83;1.25;;;19.20;72.30;;;;;;4947065;28;96086;-70
2021/10/18 02:49:00;;;;;;;1.20;0.98;;;19.30;72.30;;;;;;4967924;28;95760;-66
2021/10/18 02:51:30;;;;;;;2.35;1.08;;;19.40;72.20;;;;;;4971792;28;97772;-66
2021/10/18 02:54:04;;;;;;;1.88;0.98;;;19.40;72.20;;;;;;4970574;28;95787;-66
2021/10/18 02:56:35;;;;;;;1.95;1.50;;;19.40;72.20;;;;;;4953796;28;98216;-66
2021/10/18 02:59:05;;;;;;;1.88;1.17;;;19.50;72.00;;;;;;4970102;28;96455;-67
2021/10/18 03:01:37;;;;;;;1.85;1.20;;;19.50;71.90;;;;;;4964293;28;95800;-67
2021/10/18 03:04:08;;;;;;;1.85;0.98;;;19.60;71.90;;;;;;4973097;28;95177;-67
2021/10/18 03:06:42;;;;;;;1.33;1.00;;;19.70;71.90;;;;;;4953610;28;96391;-67
2021/10/18 03:09:14;;;;;;;1.45;1.10;;;19.70;69.50;;;;;;4971013;28;95749;-66
2021/10/18 03:11:45;;;;;;;1.15;1.00;;;19.80;71.70;;;;;;4970656;28;95824;-66
2021/10/18 03:14:18;;;;;;;1.30;1.20;;;19.80;71.60;;;;;;4952868;28;96258;-65
2021/10/18 03:16:49;;;;;;;1.02;0.90;;;19.90;71.50;;;;;;4962632;28;96109;-65
2021/10/18 03:19:20;;;;;;;0.70;0.70;;;19.90;71.50;;;;;;4952407;28;96075;-66
2021/10/18 03:21:51;;;;;;;1.27;1.10;;;19.90;71.40;;;;;;4968059;28;95894;-66
2021/10/18 03:24:22;;;;;;;0.75;0.75;;;20.00;71.30;;;;;;4970180;28;95216;-66
2021/10/18 03:26:53;;;;;;;1.60;1.13;;;20.10;71.30;;;;;;4970829;28;96374;-68
2021/10/18 03:29:27;;;;;;;1.63;1.40;;;20.20;71.20;;;;;;4970805;28;95440;-65
2021/10/18 03:31:58;;;;;;;1.48;1.08;;;20.30;70.90;;;;;;4946367;28;95789;-66
2021/10/18 03:34:30;;;;;;;1.20;1.00;;;20.40;70.80;;;;;;4953991;28;96006;-67
2021/10/18 03:36:59;;;;;;;1.08;1.00;;;20.50;70.50;;;;;;4968974;28;96978;-65
2021/10/18 03:39:29;;;;;;;1.35;0.90;;;20.60;70.30;;;;;;4968677;28;96106;-66
2021/10/18 03:42:00;;;;;;;1.42;1.20;;;20.80;70.10;;;;;;4970858;28;96781;-66
2021/10/18 03:44:30;;;;;;;1.30;1.20;;;20.90;69.80;;;;;;4953474;28;95809;-68
2021/10/18 03:47:02;;;;;;;1.50;1.40;;;21.00;69.60;;;;;;4945686;28;95616;-70
2021/10/18 03:49:33;;;;;;;;;;;21.00;69.30;;;;;;4974494;28;95441;-67
2021/10/18 03:52:06;;;;;;;1.05;0.95;;;21.10;69.30;;;;;;4954954;28;95817;-66
2021/10/18 03:54:37;;;;;;;1.00;0.90;;;21.20;69.10;;;;;;4964480;28;95887;-66
2021/10/18 03:57:09;;;;;;;19.58;1.50;;;21.20;68.80;;;;;;4968082;28;96120;-69
2021/10/18 03:59:41;;;;;;;1.13;1.05;;;21.30;68.90;;;;;;4967980;28;95841;-65
2021/10/18 04:02:11;;;;;;;1.45;1.00;;;21.30;68.80;;;;;;4960762;28;95749;-67
2021/10/18 04:04:43;;;;;;;1.45;1.25;;;21.40;68.70;;;;;;4952607;28;95460;-69
2021/10/18 04:07:14;;;;;;;1.73;1.50;;;21.30;62.60;;;;;;4950186;28;96712;-69
2021/10/18 04:09:46;;;;;;;1.73;1.50;;;21.00;64.30;;;;;;4952139;28;97523;-69
2021/10/18 04:12:18;;;;;;;2.03;1.75;;;20.90;65.30;;;;;;4972902;28;96329;-69
2021/10/18 04:14:48;;;;;;;;;;;20.80;65.70;;;;;;4989652;28;95874;-67
2021/10/18 04:17:20;;;;;;;1.40;1.30;;;20.70;66.10;;;;;;4957509;28;98023;-69
2021/10/18 04:19:51;;;;;;;1.75;1.50;;;20.60;66.10;;;;;;4982633;28;95820;-69
2021/10/18 04:22:22;;;;;;;1.63;1.50;;;20.50;66.20;;;;;;4952732;28;95901;-70
2021/10/18 04:24:54;;;;;;;1.40;1.30;;;20.40;65.70;;;;;;4980970;28;95194;-69
2021/10/18 04:27:25;;;;;;;2.75;1.58;;;20.40;66.30;;;;;;4951180;28;96884;-67
2021/10/18 04:29:57;;;;;;;2.72;1.55;;;20.30;66.10;;;;;;4960662;28;97493;-69
2021/10/18 04:32:28;;;;;;;2.42;1.42;;;20.20;66.60;;;;;;4942071;28;98442;-70
2021/10/18 04:34:58;;;;;;;1.88;1.42;;;20.20;66.60;;;;;;4967791;28;95812;-68
2021/10/18 04:37:29;;;;;;;1.83;1.50;;;20.20;66.70;;;;;;4957515;28;99920;-68
2021/10/18 04:40:00;;;;;;;;;;;20.10;66.70;;;;;;4955859;28;95923;-69
2021/10/18 04:42:30;;;;;;;1.63;0.98;;;20.10;66.90;;;;;;4971229;28;95968;-71
2021/10/18 04:45:00;;;;;;;1.77;1.10;;;20.10;67.00;;;;;;4966892;28;96018;-69
2021/10/18 04:47:30;;;;;;;2.05;1.35;;;20.00;67.10;;;;;;4949279;28;97126;-70
2021/10/18 04:50:03;;;;;;;1.27;1.17;;;20.00;67.50;;;;;;4968226;28;97751;-69
2021/10/18 04:52:35;;;;;;;1.27;1.00;;;20.00;67.50;;;;;;4950943;28;95774;-70
2021/10/18 04:55:07;;;;;;;2.58;1.10;;;20.00;67.60;;;;;;4967539;28;95804;-69
2021/10/18 04:58:04;;;;;;;1.83;1.67;;;19.90;67.60;;;;;;4973351;28;96536;-70
2021/10/18 05:00:36;;;;;;;2.25;1.30;;;19.90;67.60;;;;;;4963824;28;96483;-69
2021/10/18 05:03:08;;;;;;;2.40;1.45;;;19.90;67.90;;;;;;4935810;28;95910;-69
2021/10/18 05:05:39;;;;;;;1.55;1.23;;;19.90;67.70;;;;;;4969382;28;95753;-67
2021/10/18 05:08:13;;;;;;;1.83;1.45;;;19.80;67.90;;;;;;4962978;28;96445;-67
2021/10/18 05:10:44;;;;;;;1.48;1.38;;;19.80;67.90;;;;;;4966476;28;96178;-69
2021/10/18 05:13:18;;;;;;;1.60;1.33;;;19.80;68.00;;;;;;4966593;28;95404;-67
2021/10/18 05:15:52;;;;;;;2.70;1.40;;;19.80;68.00;;;;;;4942046;28;96031;-68
2021/10/18 05:18:23;;;;;;;1.20;1.10;;;19.80;67.90;;;;;;4945609;28;98444;-67
2021/10/18 05:20:53;;;;;;;1.63;1.50;;;19.70;67.80;;;;;;4966567;28;95851;-70
2021/10/18 05:23:25;;;;;;;2.50;1.33;;;19.70;68.00;;;;;;4968878;28;95758;-70
2021/10/18 05:25:55;;;;;;;;;;;19.70;68.10;;;;;;4950317;28;96226;-70
2021/10/18 05:28:27;;;;;;;1.53;1.40;;;19.70;68.00;;;;;;4968984;28;96130;-70
2021/10/18 05:30:58;;;;;;;2.42;1.80;;;19.60;68.20;;;;;;4946903;28;97260;-69
2021/10/18 05:33:29;;;;;;;;;;;19.60;68.30;;;;;;4975508;28;95236;-71
2021/10/18 05:36:00;;;;;;;1.85;1.02;;;19.70;68.40;;;;;;4953861;28;95897;-69
2021/10/18 05:38:30;;;;;;;2.67;1.10;;;19.60;68.40;;;;;;4948970;28;96773;-71
2021/10/18 05:41:00;;;;;;;1.95;1.25;;;19.60;66.00;;;;;;4951139;28;96448;-69
2021/10/18 05:43:30;;;;;;;1.33;1.23;;;19.50;68.10;;;;;;4973639;28;95543;-68
2021/10/18 05:46:00;;;;;;;1.67;1.23;;;19.60;68.30;;;;;;4963675;28;96062;-70
2021/10/18 05:48:33;;;;;;;1.50;1.10;;;19.50;68.40;;;;;;4952918;28;95464;-70
2021/10/18 05:51:06;;;;;;;1.73;1.13;;;19.50;68.40;;;;;;4970057;28;96526;-70
2021/10/18 05:53:36;;;;;;;1.40;1.30;;;19.50;68.30;;;;;;4950385;28;95212;-70
2021/10/18 05:56:07;;;;;;;2.17;1.65;;;19.50;68.20;;;;;;4971868;28;95599;-67
2021/10/18 05:58:39;;;;;;;;;;;19.50;68.20;;;;;;4951605;28;98058;-71
2021/10/18 06:01:11;;;;;;;10.30;3.65;;;19.50;68.50;;;;;;4946673;28;95797;-69
2021/10/18 06:03:44;;;;;;;10.43;3.30;;;19.40;68.50;;;;;;4953713;28;95786;-70
2021/10/18 06:06:18;;;;;;;5.57;2.75;;;19.40;68.60;;;;;;4951575;28;95407;-70
2021/10/18 06:09:10;;;;;;;7.25;2.40;;;19.40;68.80;;;;;;4953613;28;96526;-69
2021/10/18 06:11:41;;;;;;;3.25;2.22;;;19.40;68.80;;;;;;4968987;28;96595;-70
2021/10/18 06:14:11;;;;;;;5.00;1.85;;;19.40;68.80;;;;;;4981534;28;98125;-70
2021/10/18 06:16:41;;;;;;;6.28;2.75;;;19.30;68.80;;;;;;4962912;28;96004;-70
2021/10/18 06:19:11;;;;;;;4.47;1.92;;;19.30;68.80;;;;;;4970126;28;95610;-70
2021/10/18 06:21:43;;;;;;;3.13;1.73;;;19.30;68.80;;;;;;4935459;28;97344;-71
2021/10/18 06:24:15;;;;;;;2.55;1.52;;;19.30;68.80;;;;;;4969529;28;95679;-67
2021/10/18 06:26:46;;;;;;;3.97;1.50;;;19.30;68.80;;;;;;4948989;28;95684;-67
2021/10/18 06:29:17;;;;;;;2.60;1.50;;;19.30;68.70;;;;;;4968987;28;96670;-67
2021/10/18 06:31:48;;;;;;;5.82;2.03;;;19.20;68.50;;;;;;4961528;28;95985;-67
2021/10/18 06:34:20;;;;;;;2.70;1.25;;;19.20;68.80;;;;;;4969900;28;96450;-67
2021/10/18 06:36:49;;;;;;;3.30;2.10;;;19.20;68.70;;;;;;4971221;28;96106;-67
2021/10/18 06:39:20;;;;;;;2.42;1.38;;;19.20;68.80;;;;;;4968261;28;96506;-67
2021/10/18 06:41:51;;;;;;;3.72;1.73;;;19.10;68.80;;;;;;4969837;28;95894;-67
2021/10/18 06:44:21;;;;;;;4.35;1.88;;;19.10;68.90;;;;;;4968124;28;95940;-68
2021/10/18 06:46:51;;;;;;;3.00;1.98;;;19.10;68.90;;;;;;4963389;28;95761;-67
2021/10/18 06:49:23;;;;;;;4.15;2.05;;;19.10;68.90;;;;;;4972368;28;96064;-67
2021/10/18 06:51:58;;;;;;;2.53;1.58;;;19.10;69.00;;;;;;4966688;28;96251;-68
2021/10/18 06:54:41;;;;;;;3.90;1.60;;;19.00;68.80;;;;;;4970587;28;96056;-69
2021/10/18 06:57:12;;;;;;;3.60;2.15;;;19.00;69.00;;;;;;4972152;28;96109;-68
2021/10/18 06:59:43;;;;;;;;;;;19.00;69.00;;;;;;4969074;28;96460;-67
2021/10/18 07:02:19;;;;;;;3.05;1.23;;;19.00;69.10;;;;;;4963111;28;96562;-67
2021/10/18 07:04:49;;;;;;;4.30;1.58;;;19.00;69.10;;;;;;4970579;28;95650;-67
2021/10/18 07:07:21;;;;;;;2.35;1.20;;;19.00;69.10;;;;;;4970669;28;97152;-67
2021/10/18 07:09:51;;;;;;;4.57;1.70;;;19.10;69.10;;;;;;4974678;28;96769;-65
2021/10/18 07:12:21;;;;;;;4.20;1.73;;;19.10;69.20;;;;;;4972622;28;95566;-68
2021/10/18 07:14:52;;;;;;;2.08;1.50;;;19.20;68.30;;;;;;4974957;28;95721;-68
2021/10/18 07:17:23;;;;;;;7.20;1.90;;;19.20;69.70;;;;;;4969849;28;96675;-67
2021/10/18 07:19:56;;;;;;;7.10;2.33;;;19.30;70.00;;;;;;4980029;28;95827;-67
2021/10/18 07:22:35;;;;;;;7.60;4.00;;;19.30;70.10;;;;;;4983452;28;95971;-67
2021/10/18 07:25:07;;;;;;;7.95;4.72;;;19.40;70.80;;;;;;4982059;28;95797;-67
2021/10/18 07:27:37;;;;;;;;;;;19.40;71.10;;;;;;4964446;28;95638;-67
2021/10/18 07:30:09;;;;;;;14.68;6.53;;;19.40;71.80;;;;;;4964522;28;96643;-68
2021/10/18 07:32:43;;;;;;;;;;;19.40;71.80;;;;;;4949426;28;105576;-67
2021/10/18 07:35:16;;;;;;;13.70;6.25;;;19.50;72.20;;;;;;4969640;28;100505;-67
2021/10/18 07:37:54;;;;;;;12.48;5.65;;;19.50;72.30;;;;;;4951195;28;95578;-67
2021/10/18 07:40:26;;;;;;;13.82;6.93;;;19.50;72.10;;;;;;4952607;28;96463;-67
2021/10/18 07:42:56;;;;;;;11.25;5.65;;;19.50;72.10;;;;;;4952309;28;96160;-67
2021/10/18 07:45:27;;;;;;;10.93;4.87;;;19.50;72.00;;;;;;4960391;28;95632;-67
2021/10/18 07:47:57;;;;;;;;;;;19.50;71.90;;;;;;4970522;28;96133;-67
2021/10/18 07:50:28;;;;;;;9.15;4.88;;;19.50;71.90;;;;;;4967699;28;96600;-67
2021/10/18 07:52:58;;;;;;;8.10;4.72;;;19.50;71.80;;;;;;4963150;28;97367;-68
2021/10/18 07:55:34;;;;;;;7.97;4.28;;;19.50;71.80;;;;;;4967413;28;95335;-67
2021/10/18 07:58:23;;;;;;;7.47;4.30;;;19.50;71.80;;;;;;4971390;28;95577;-68
2021/10/18 08:00:54;;;;;;;8.32;3.85;;;19.50;71.60;;;;;;4960267;28;96923;-67
2021/10/18 08:03:25;;;;;;;7.75;4.35;;;19.40;71.50;;;;;;4970230;28;95392;-69
2021/10/18 08:05:56;;;;;;;6.43;3.25;;;19.40;71.70;;;;;;4971061;28;97255;-67
2021/10/18 08:08:30;;;;;;;10.02;5.03;;;19.40;71.70;;;;;;4966225;28;95366;-67
2021/10/18 08:11:01;;;;;;;9.07;3.63;;;19.40;71.70;;;;;;4964384;28;96486;-67
2021/10/18 08:13:33;;;;;;;10.57;4.15;;;19.30;71.70;;;;;;4968279;28;95610;-67
2021/10/18 08:16:03;;;;;;;5.13;3.00;;;19.30;71.60;;;;;;4963363;28;96618;-67
2021/10/18 08:18:38;;;;;;;8.23;3.33;;;19.20;71.70;;;;;;4969329;28;95923;-67
2021/10/18 08:21:11;;;;;;;7.10;3.83;;;19.20;71.70;;;;;;4963392;28;96107;-66
2021/10/18 08:23:42;;;;;;;6.32;2.90;;;19.20;70.00;;;;;;4964679;28;96608;-68
2021/10/18 08:26:14;;;;;;;6.15;2.92;;;19.20;71.60;;;;;;4953411;28;95939;-68
2021/10/18 08:28:46;;;;;;;5.53;3.10;;;19.20;71.70;;;;;;4966984;28;95730;-68
2021/10/18 08:31:18;;;;;;;4.82;3.42;;;19.10;71.70;;;;;;4958730;28;98548;-67
2021/10/18 08:33:49;;;;;;;6.07;2.92;;;19.00;72.00;;;;;;4968533;28;95543;-67
2021/10/18 08:36:20;;;;;;;4.28;2.63;;;19.00;71.90;;;;;;4965101;28;99619;-68
2021/10/18 08:38:51;;;;;;;4.57;2.63;;;19.00;72.50;;;;;;4964873;28;95946;-67
2021/10/18 08:41:31;;;;;;;6.50;2.95;;;19.00;72.50;;;;;;4965958;28;96080;-67
2021/10/18 08:44:16;;;;;;;6.78;3.28;;;19.00;72.60;;;;;;4957792;28;95989;-67
2021/10/18 08:46:58;;;;;;;3.03;2.30;;;19.00;72.80;;;;;;4961132;28;98671;-68
2021/10/18 08:49:30;;;;;;;6.38;2.88;;;19.00;72.70;;;;;;4937285;28;95624;-67
2021/10/18 08:52:05;;;;;;;4.05;2.50;;;18.90;72.50;;;;;;4970146;28;96951;-68
2021/10/18 08:54:36;;;;;;;4.90;2.25;;;18.90;72.50;;;;;;4970280;28;95839;-67
2021/10/18 08:57:07;;;;;;;6.55;2.28;;;18.90;72.30;;;;;;4973592;28;95270;-67
2021/10/18 08:59:39;;;;;;;3.20;1.92;;;18.90;72.10;;;;;;4986802;28;95870;-68
2021/10/18 09:02:10;;;;;;;2.47;1.67;;;18.80;72.00;;;;;;4962962;28;97497;-67
2021/10/18 09:04:42;;;;;;;3.53;2.15;;;18.80;72.00;;;;;;4951514;28;98258;-69
2021/10/18 09:07:16;;;;;;;3.33;1.95;;;18.80;72.10;;;;;;4969764;28;95740;-68
2021/10/18 09:09:51;;;;;;;4.57;1.60;;;18.80;72.20;;;;;;4968143;28;96054;-69
2021/10/18 09:12:38;;;;;;;3.22;1.95;;;18.80;72.00;;;;;;4950296;28;96054;-67
2021/10/18 09:15:26;;;;;;;3.60;1.95;;;18.80;72.10;;;;;;4967619;28;95731;-66
2021/10/18 09:18:01;;;;;;;3.92;2.10;;;18.80;72.90;;;;;;4983205;28;95973;-67
2021/10/18 09:20:36;;;;;;;4.70;2.33;;;18.80;72.20;;;;;;4973581;28;95943;-66
2021/10/18 09:26:07;;;;;;;4.55;1.83;;;18.70;72.10;;;;;;4968142;28;96429;-67
2021/10/18 09:28:40;;;;;;;3.15;2.10;;;18.70;72.10;;;;;;4970374;28;96406;-67
2021/10/18 09:31:22;;;;;;;2.67;1.70;;;18.70;72.00;;;;;;4962753;28;95967;-69
2021/10/18 09:34:02;;;;;;;2.92;1.60;;;18.70;72.00;;;;;;4970002;28;96973;-67
2021/10/18 09:36:34;;;;;;;6.15;2.50;;;18.70;71.80;;;;;;4965219;28;95978;-66
2021/10/18 09:39:18;;;;;;;3.35;1.75;;;18.60;71.70;;;;;;4968479;28;96873;-66
2021/10/18 09:42:09;;;;;;;3.80;1.50;;;18.60;71.60;;;;;;4969351;28;96260;-69
2021/10/18 09:45:23;;;;;;;3.17;1.70;;;18.60;71.50;;;;;;4934360;28;97785;-68
2021/10/18 10:51:47;;;;;;;3.25;1.52;;;18.00;71.00;;;;;;4969895;28;95741;-68
2021/10/18 10:54:46;;;;;;;1.77;1.50;;;18.00;71.10;;;;;;4968769;28;96854;-66
2021/10/18 10:57:32;;;;;;;1.88;1.13;;;18.00;71.10;;;;;;4928187;28;96554;-67
2021/10/18 11:00:03;;;;;;;2.40;1.52;;;18.00;68.90;;;;;;4970572;28;95788;-67
2021/10/18 11:02:35;;;;;;;1.85;1.40;;;18.00;71.20;;;;;;4945917;28;97462;-67
2021/10/18 11:05:09;;;;;;;1.38;1.25;;;18.00;71.30;;;;;;4971011;28;96115;-67
2021/10/18 11:07:52;;;;;;;2.42;1.60;;;17.90;71.30;;;;;;4969491;28;96016;-67
2021/10/18 11:10:24;;;;;;;2.00;1.58;;;17.90;71.30;;;;;;4970741;28;97515;-67
2021/10/18 11:13:05;;;;;;;;;;;17.90;71.30;;;;;;4942405;28;96106;-67
2021/10/18 11:15:36;;;;;;;2.13;1.80;;;17.90;71.40;;;;;;4957232;28;96292;-67
2021/10/18 11:18:08;;;;;;;2.75;2.15;;;17.90;71.30;;;;;;4966871;28;96541;-68
2021/10/18 11:20:39;;;;;;;2.40;2.20;;;17.80;71.30;;;;;;4953810;28;96041;-68
2021/10/18 11:23:09;;;;;;;3.10;2.25;;;17.80;71.40;;;;;;4968662;28;95516;-67
2021/10/18 11:25:44;;;;;;;3.03;1.92;;;17.80;71.40;;;;;;4946075;28;96084;-68
2021/10/18 11:28:16;;;;;;;2.97;1.98;;;17.80;71.50;;;;;;4945532;28;97222;-67
2021/10/18 11:30:47;;;;;;;2.67;1.90;;;17.70;71.40;;;;;;4938162;28;95744;-67
2021/10/18 11:33:18;;;;;;;;;;;17.70;71.40;;;;;;4951739;28;95900;-67
2021/10/18 11:35:48;;;;;;;2.00;1.45;;;17.70;71.40;;;;;;4962475;28;96009;-67
2021/10/18 11:38:24;;;;;;;2.70;1.85;;;17.70;71.40;;;;;;4946740;28;96480;-68
2021/10/18 11:40:56;;;;;;;2.47;1.85;;;17.70;71.50;;;;;;4969716;28;95847;-67
2021/10/18 11:43:30;;;;;;;1.80;1.60;;;17.70;71.50;;;;;;4969264;28;95690;-66
2021/10/18 11:46:00;;;;;;;2.20;1.98;;;17.70;71.50;;;;;;4961018;28;96183;-68
2021/10/18 11:48:32;;;;;;;2.30;1.90;;;17.60;71.40;;;;;;4937549;28;97809;-69
2021/10/18 11:51:06;;;;;;;1.90;1.40;;;17.60;71.40;;;;;;4950617;28;97307;-67
2021/10/18 11:53:44;;;;;;;2.50;1.65;;;17.60;71.70;;;;;;4948987;28;96301;-67
2021/10/18 11:56:20;;;;;;;2.03;1.60;;;17.60;71.90;;;;;;4967053;28;96668;-68
2021/10/18 11:58:51;;;;;;;1.95;1.40;;;17.60;71.80;;;;;;4965195;28;96149;-68
2021/10/18 12:01:28;;;;;;;1.63;1.25;;;17.60;71.70;;;;;;4938362;28;95445;-68
2021/10/18 12:04:00;;;;;;;2.15;1.90;;;17.60;71.70;;;;;;4966825;28;97706;-68
2021/10/18 12:06:32;;;;;;;2.33;1.67;;;17.60;71.60;;;;;;4967406;28;98248;-68
2021/10/18 12:09:06;;;;;;;1.30;1.20;;;17.70;71.70;;;;;;4944860;28;95730;-68
2021/10/18 12:11:39;;;;;;;2.10;1.50;;;17.70;71.60;;;;;;4938840;28;95766;-67
2021/10/18 12:14:10;;;;;;;2.80;1.50;;;17.70;71.60;;;;;;4965745;28;95285;-68
2021/10/18 12:16:40;;;;;;;1.80;1.27;;;17.70;71.60;;;;;;4940336;28;98024;-69
2021/10/18 12:19:13;;;;;;;1.77;1.48;;;17.70;71.50;;;;;;4963479;28;95468;-69
2021/10/18 12:21:48;;;;;;;2.22;1.48;;;17.70;71.50;;;;;;4968196;28;95494;-68
2021/10/18 12:24:19;;;;;;;2.20;1.30;;;17.70;71.50;;;;;;4950183;28;95802;-68
2021/10/18 12:26:55;;;;;;;1.90;1.60;;;17.70;71.40;;;;;;4966044;28;96104;-68
2021/10/18 12:29:26;;;;;;;1.92;1.30;;;17.70;71.40;;;;;;4949147;28;95923;-68
2021/10/18 12:31:58;;;;;;;1.20;1.10;;;17.70;71.30;;;;;;4943784;28;98136;-68
2021/10/18 12:34:29;;;;;;;1.70;1.40;;;17.80;71.40;;;;;;4970729;28;96081;-67
2021/10/18 12:37:11;;;;;;;2.88;1.58;;;17.80;71.40;;;;;;4970419;28;97064;-66
2021/10/18 12:39:47;;;;;;;1.70;1.60;;;17.80;71.60;;;;;;4972385;28;96368;-65
2021/10/18 12:42:27;;;;;;;2.08;1.40;;;17.90;71.70;;;;;;4972878;28;95371;-66
2021/10/18 12:45:10;;;;;;;2.10;1.23;;;17.90;71.80;;;;;;4957548;28;96012;-65
2021/10/18 12:47:56;;;;;;;1.52;1.40;;;18.00;71.80;;;;;;4971428;28;102369;-65
2021/10/18 12:50:30;;;;;;;1.27;1.13;;;18.00;71.80;;;;;;4972334;28;96130;-66
2021/10/18 12:53:10;;;;;;;2.45;1.50;;;18.10;71.80;;;;;;4957948;28;95335;-65
2021/10/18 12:55:43;;;;;;;1.85;1.50;;;18.20;71.90;;;;;;4954551;28;95556;-66
2021/10/18 12:58:22;;;;;;;1.98;1.30;;;18.20;71.90;;;;;;4954383;28;99038;-66
2021/10/18 13:00:54;;;;;;;1.83;1.35;;;18.20;71.90;;;;;;4965899;28;96179;-66
2021/10/18 13:03:24;;;;;;;;;;;18.30;71.90;;;;;;4961887;28;95750;-67
2021/10/18 13:05:55;;;;;;;1.60;1.50;;;18.40;71.90;;;;;;4940940;28;95393;-66
2021/10/18 13:08:29;;;;;;;1.42;1.33;;;18.50;71.90;;;;;;4958810;28;96103;-66
2021/10/18 13:10:59;;;;;;;1.50;1.40;;;18.60;71.80;;;;;;4991700;28;95482;-65
2021/10/18 13:13:31;;;;;;;1.17;1.08;;;18.70;71.40;;;;;;4973611;28;96084;-66
2021/10/18 13:16:04;;;;;;;2.20;1.45;;;18.90;71.20;;;;;;4971416;28;95789;-66
2021/10/18 13:18:36;;;;;;;1.42;1.33;;;19.00;70.80;;;;;;4972409;28;97020;-65
2021/10/18 13:21:07;;;;;;;1.40;1.30;;;19.20;70.70;;;;;;4973777;28;96443;-66
2021/10/18 13:23:37;;;;;;;1.63;1.45;;;19.30;70.30;;;;;;4971578;28;95262;-67
2021/10/18 13:26:09;;;;;;;1.27;1.17;;;19.40;70.10;;;;;;4973935;28;96140;-66
2021/10/18 13:28:39;;;;;;;;;;;19.50;69.90;;;;;;4953120;28;96123;-67
2021/10/18 13:31:11;;;;;;;3.28;1.80;;;19.40;67.50;;;;;;4946453;28;96909;-67
2021/10/18 13:33:42;;;;;;;2.17;1.73;;;19.30;68.00;;;;;;4967216;28;95648;-67
2021/10/18 13:36:12;;;;;;;2.13;1.83;;;19.10;68.40;;;;;;4976438;28;95274;-67
2021/10/18 13:38:46;;;;;;;2.92;2.38;;;19.00;68.80;;;;;;4974513;28;96218;-67
2021/10/18 13:41:17;;;;;;;2.20;2.00;;;18.90;69.20;;;;;;4963400;28;95297;-67
2021/10/18 13:43:47;;;;;;;4.35;2.40;;;18.70;69.50;;;;;;4984615;28;97985;-66
2021/10/18 13:46:17;;;;;;;2.38;1.65;;;18.60;69.80;;;;;;4947199;28;95212;-67
2021/10/18 13:48:48;;;;;;;2.28;1.88;;;18.50;69.80;;;;;;4969273;28;96207;-67
2021/10/18 13:51:21;;;;;;;3.20;1.83;;;18.50;70.40;;;;;;4979771;28;95209;-67
2021/10/18 13:53:54;;;;;;;2.25;2.05;;;18.40;70.50;;;;;;4973987;28;96255;-67
2021/10/18 13:56:25;;;;;;;1.65;1.55;;;18.40;70.70;;;;;;4974659;28;97054;-67
2021/10/18 13:58:56;;;;;;;1.95;1.65;;;18.30;70.80;;;;;;4968358;28;96707;-67
2021/10/18 14:01:27;;;;;;;;;;;18.20;70.90;;;;;;4963426;28;96146;-67
2021/10/18 14:04:01;;;;;;;2.45;1.50;;;18.20;71.00;;;;;;4954691;28;95614;-69
2021/10/18 14:06:33;;;;;;;3.05;1.50;;;18.10;71.10;;;;;;4971007;28;95843;-70
2021/10/18 14:09:05;;;;;;;2.33;1.80;;;18.00;71.30;;;;;;4958436;28;96588;-66
2021/10/18 14:11:38;;;;;;;2.08;1.80;;;18.00;71.40;;;;;;4970742;28;96072;-66
2021/10/18 14:14:09;;;;;;;4.70;1.52;;;18.00;71.60;;;;;;4970049;28;95825;-66
2021/10/18 14:16:40;;;;;;;2.33;1.50;;;17.90;71.70;;;;;;4964900;28;95760;-66
2021/10/18 14:19:10;;;;;;;1.80;1.42;;;17.90;71.90;;;;;;4970495;28;96721;-67
2021/10/18 14:21:41;;;;;;;1.90;1.63;;;17.80;71.90;;;;;;4953403;28;96210;-67
2021/10/18 14:24:14;;;;;;;1.95;1.80;;;17.80;71.90;;;;;;4985822;28;95958;-66
2021/10/18 14:26:45;;;;;;;2.58;1.73;;;17.80;72.00;;;;;;4971297;28;95528;-66